Time;durP1;ratioP1;P1;durP2;ratioP2;P2;SDS_P1;SDS_P2;PMS_P1;PMS_P2;Temp;Humidity;BMP_temperature;BMP_pressure;BME280_temperature;BME280_humidity;BME280_pressure;Samples;Min_cycle;Max_cycle;Signal;HPM_P1;HPM_P2
2021/11/03 00:09:02;;;;;;;16.70;9.70;;;;;;;9.02;100.00;98993.61;708797;1209;115495;-74
2021/11/03 00:24:05;;;;;;;13.88;8.05;;;;;;;9.09;100.00;98995.45;708863;1187;113878;-74
2021/11/03 00:39:07;;;;;;;10.80;6.30;;;;;;;9.10;100.00;98991.83;708593;1212;115359;-74
2021/11/03 00:54:10;;;;;;;10.40;6.63;;;;;;;9.13;100.00;98996.77;708667;1189;113823;-73
2021/11/03 01:09:12;;;;;;;10.80;6.98;;;;;;;9.12;100.00;98994.31;708806;1187;114252;-73
2021/11/03 01:24:14;;;;;;;8.70;5.40;;;;;;;9.10;100.00;98991.03;708784;1212;113980;-73
2021/11/03 01:39:16;;;;;;;57.57;28.60;;;;;;;9.07;100.00;99005.23;708660;1208;114748;-73
2021/11/03 01:54:33;;;;;;;18.05;8.90;;;;;;;9.06;100.00;99008.02;708627;1187;114620;-72
2021/11/03 02:09:35;;;;;;;10.85;7.45;;;;;;;9.05;100.00;99008.98;708723;1192;114259;-72
2021/11/03 02:24:50;;;;;;;13.00;7.00;;;;;;;9.06;100.00;99015.86;708709;1187;114034;-72
2021/11/03 02:40:11;;;;;;;13.00;7.50;;;;;;;9.04;100.00;99023.88;708647;1209;113724;-74
2021/11/03 02:55:13;;;;;;;9.35;5.80;;;;;;;9.00;100.00;99022.55;708537;1212;113917;-72
2021/11/03 03:10:16;;;;;;;11.05;5.90;;;;;;;9.02;100.00;99040.70;708675;1212;115104;-72
2021/11/03 03:25:18;;;;;;;8.45;5.00;;;;;;;9.00;100.00;99043.47;708645;1212;115352;-73
2021/11/03 03:40:21;;;;;;;6.50;3.90;;;;;;;8.98;100.00;99058.49;708642;1209;114754;-72
2021/11/03 03:55:23;;;;;;;8.00;5.10;;;;;;;8.93;100.00;99074.63;708944;1209;113712;-72
2021/11/03 04:10:25;;;;;;;11.98;7.90;;;;;;;8.86;100.00;99088.51;708786;1187;114137;-76
2021/11/03 04:25:28;;;;;;;10.70;6.50;;;;;;;8.82;100.00;99088.80;709114;1187;113887;-75
2021/11/03 04:40:30;;;;;;;28.90;13.00;;;;;;;8.80;100.00;99103.83;709231;1187;113850;-74
2021/11/03 04:55:32;;;;;;;10.20;6.30;;;;;;;8.80;100.00;99119.52;709012;1212;114367;-76
2021/11/03 05:10:35;;;;;;;10.95;5.55;;;;;;;8.79;100.00;99125.72;708661;1187;113711;-75
2021/11/03 05:25:38;;;;;;;10.90;6.23;;;;;;;8.75;100.00;99139.23;708897;1209;114581;-74
2021/11/03 05:40:40;;;;;;;10.87;6.20;;;;;;;8.71;100.00;99161.42;708787;1209;114482;-74
2021/11/03 05:55:43;;;;;;;11.50;6.55;;;;;;;8.68;100.00;99174.81;708945;1212;114985;-73
2021/11/03 06:10:47;;;;;;;11.60;7.50;;;;;;;8.67;100.00;99200.15;711892;1209;114819;-73
2021/11/03 06:25:50;;;;;;;10.70;6.75;;;;;;;8.69;100.00;99220.91;709520;1209;114300;-71
2021/11/03 06:40:53;;;;;;;12.40;6.85;;;;;;;8.76;100.00;99230.63;709102;1209;114275;-72
2021/11/03 06:55:56;;;;;;;14.85;9.90;;;;;;;8.76;100.00;99242.86;708954;1209;115082;-72
2021/11/03 07:11:01;;;;;;;18.85;12.80;;;;;;;8.88;100.00;99256.54;709137;1209;113831;-71
2021/11/03 07:26:04;;;;;;;22.00;11.90;;;;;;;9.02;100.00;99281.37;708577;1188;114127;-74
2021/11/03 07:41:07;;;;;;;28.43;12.87;;;;;;;9.14;100.00;99295.86;708852;1209;114810;-73
2021/11/03 07:56:16;;;;;;;50.10;20.60;;;;;;;9.26;100.00;99320.81;709349;1186;114395;-74
2021/11/03 08:11:18;;;;;;;27.80;13.45;;;;;;;9.47;100.00;99343.25;709543;1187;114136;-71
2021/11/03 08:26:22;;;;;;;42.20;18.95;;;;;;;9.52;100.00;99345.42;709627;1208;114156;-72
2021/11/03 08:41:27;;;;;;;26.10;14.10;;;;;;;9.74;100.00;99354.58;709211;1208;114987;-72
2021/11/03 08:56:30;;;;;;;25.70;11.95;;;;;;;10.12;100.00;99371.72;708851;1192;114434;-74
2021/11/03 09:11:34;;;;;;;26.90;13.70;;;;;;;10.19;100.00;99369.30;708876;1209;114565;-75
2021/11/03 09:26:37;;;;;;;23.20;11.90;;;;;;;10.65;100.00;99384.80;709695;1184;114683;-75
2021/11/03 09:41:47;;;;;;;22.65;12.00;;;;;;;11.27;100.00;99388.89;708982;1209;114353;-75
2021/11/03 09:56:59;;;;;;;16.10;9.30;;;;;;;11.67;100.00;99405.70;709457;1210;115009;-75
2021/11/03 10:12:02;;;;;;;14.70;8.77;;;;;;;12.62;100.00;99401.64;709294;1187;114371;-77
2021/11/03 10:27:04;;;;;;;17.03;10.23;;;;;;;12.34;100.00;99423.09;709121;1208;114985;-73
2021/11/03 10:42:22;;;;;;;27.15;14.40;;;;;;;11.45;100.00;99421.09;708845;1195;116236;-74
2021/11/03 10:57:35;;;;;;;24.30;14.90;;;;;;;11.12;100.00;99442.02;708833;1208;114787;-74
2021/11/03 11:12:43;;;;;;;28.97;14.97;;;;;;;10.75;100.00;99451.06;708968;1208;114852;-74
2021/11/03 11:28:03;;;;;;;37.90;21.00;;;;;;;10.20;100.00;99441.72;708777;1209;114994;-74
2021/11/03 11:43:28;;;;;;;49.85;25.70;;;;;;;10.12;100.00;99449.50;709143;1212;114604;-73
2021/11/03 11:58:33;;;;;;;33.00;17.15;;;;;;;9.87;100.00;99453.73;709165;1209;114074;-73
2021/11/03 12:13:46;;;;;;;404.45;212.90;;;;;;;9.70;100.00;99461.45;709234;1209;114077;-73
2021/11/03 12:28:55;;;;;;;53.75;35.25;;;;;;;9.43;100.00;99489.31;709368;1212;115317;-74
2021/11/03 12:44:01;;;;;;;36.20;20.50;;;;;;;9.03;100.00;99503.59;709002;1186;113862;-75
2021/11/03 12:59:18;;;;;;;35.30;19.00;;;;;;;9.04;100.00;99504.40;709459;1209;113871;-72
2021/11/03 13:14:25;;;;;;;52.50;29.30;;;;;;;9.22;100.00;99520.17;709381;1195;114305;-73
2021/11/03 13:29:32;;;;;;;44.63;25.20;;;;;;;9.30;100.00;99534.19;709770;1194;114082;-73
2021/11/03 13:44:39;;;;;;;48.05;22.80;;;;;;;9.53;100.00;99541.64;709870;1212;114928;-73
2021/11/03 13:59:54;;;;;;;47.70;23.80;;;;;;;9.68;100.00;99539.34;709077;1209;114921;-75
2021/11/03 14:14:57;;;;;;;51.40;23.40;;;;;;;10.40;100.00;99549.86;708789;1209;114374;-74
2021/11/03 14:30:00;;;;;;;53.90;24.93;;;;;;;10.90;100.00;99542.31;708875;1209;113781;-74
2021/11/03 14:45:03;;;;;;;46.00;23.70;;;;;;;10.44;100.00;99545.14;709604;1212;114731;-75
2021/11/03 15:00:08;;;;;;;230.60;77.00;;;;;;;9.65;100.00;99564.02;709142;1212;115128;-74
2021/11/03 15:15:13;;;;;;;107.20;44.75;;;;;;;9.19;100.00;99593.74;709961;1208;115372;-73
2021/11/03 15:30:29;;;;;;;170.80;56.35;;;;;;;9.02;100.00;99577.80;709411;1208;114956;-74
2021/11/03 15:45:32;;;;;;;315.00;91.30;;;;;;;9.01;100.00;99578.77;709120;1209;115353;-73
2021/11/03 16:00:39;;;;;;;179.27;73.50;;;;;;;9.07;100.00;99588.67;709038;1209;115307;-73
2021/11/03 16:15:44;;;;;;;383.30;141.50;;;;;;;9.16;100.00;99587.81;709507;1208;114754;-73
2021/11/03 16:30:49;;;;;;;;;;;;;;;9.24;100.00;99612.46;709003;1212;114855;-73
2021/11/03 16:45:54;;;;;;;130.80;54.60;;;;;;;8.92;100.00;99618.85;709001;1212;101040;-73
2021/11/03 17:00:59;;;;;;;133.30;62.00;;;;;;;8.83;100.00;99644.08;709434;1209;115025;-73
2021/11/03 17:16:04;;;;;;;138.55;62.40;;;;;;;8.50;100.00;99643.55;709466;1187;114704;-72
2021/11/03 17:31:08;;;;;;;176.20;82.85;;;;;;;8.15;100.00;99650.89;709486;1209;115860;-74
2021/11/03 17:46:13;;;;;;;123.90;52.20;;;;;;;7.90;100.00;99633.11;709176;1209;114214;-74
2021/11/03 18:01:19;;;;;;;206.78;73.83;;;;;;;7.62;100.00;99636.32;709139;1185;114194;-70
2021/11/03 18:16:24;;;;;;;152.70;60.80;;;;;;;7.31;100.00;99656.38;709398;1187;114306;-70
2021/11/03 18:31:34;;;;;;;98.00;43.70;;;;;;;7.10;100.00;99644.20;709345;1212;114157;-71
2021/11/03 18:46:37;;;;;;;103.93;44.33;;;;;;;6.92;100.00;99654.38;709125;1210;114401;-71
2021/11/03 19:01:59;;;;;;;80.30;35.30;;;;;;;6.78;100.00;99675.53;708869;1208;115764;-71
2021/11/03 19:17:04;;;;;;;104.20;40.75;;;;;;;6.75;100.00;99681.83;709037;1209;115639;-72
2021/11/03 19:32:08;;;;;;;114.97;47.20;;;;;;;6.71;100.00;99690.85;708994;1209;114725;-72
2021/11/03 19:47:12;;;;;;;147.00;56.60;;;;;;;6.43;100.00;99685.27;709181;1188;115718;-74
2021/11/03 20:02:17;;;;;;;283.40;107.45;;;;;;;6.14;100.00;99687.59;709404;1212;114415;-69
2021/11/03 20:17:34;;;;;;;307.30;121.57;;;;;;;5.83;100.00;99679.53;709407;1209;115871;-71
2021/11/03 20:32:50;;;;;;;373.30;143.80;;;;;;;5.57;100.00;99700.61;709956;1208;114652;-73
2021/11/03 20:48:02;;;;;;;339.00;125.80;;;;;;;5.28;100.00;99713.23;708799;1209;114867;-72
2021/11/03 21:03:05;;;;;;;243.60;95.30;;;;;;;5.45;100.00;99728.39;708757;1209;114988;-72
2021/11/03 21:18:11;;;;;;;167.43;71.57;;;;;;;5.50;100.00;99721.06;708698;1185;114148;-73
2021/11/03 21:33:15;;;;;;;386.70;120.70;;;;;;;5.24;100.00;99703.97;708525;1209;114268;-72
2021/11/03 21:48:19;;;;;;;255.50;94.18;;;;;;;5.33;100.00;99693.72;708740;1208;115137;-72
2021/11/03 22:03:28;;;;;;;170.20;64.20;;;;;;;5.23;100.00;99678.94;708959;1186;114174;-72
2021/11/03 22:18:30;;;;;;;109.65;44.25;;;;;;;5.30;100.00;99665.33;708884;1209;114596;-72
2021/11/03 22:33:32;;;;;;;61.95;30.35;;;;;;;5.77;100.00;99654.82;708805;1187;114268;-72
2021/11/03 22:48:35;;;;;;;58.00;28.60;;;;;;;6.01;100.00;99666.89;708748;1209;115123;-72
2021/11/03 23:03:37;;;;;;;50.80;26.65;;;;;;;6.21;100.00;99667.91;708860;1208;114435;-72
2021/11/03 23:18:40;;;;;;;47.05;23.65;;;;;;;6.56;100.00;99632.98;709054;1209;115258;-71
2021/11/03 23:33:42;;;;;;;45.80;23.40;;;;;;;6.75;100.00;99640.11;708792;1209;114648;-72
2021/11/03 23:48:44;;;;;;;46.90;23.55;;;;;;;6.68;100.00;99612.91;708718;1208;115527;-72
